Trenton, Missouri
Current Conditions -  °F | °C
As of 10:02 PM on Saturday 20 Dec 2014 (Local Time) from KLWD Reporting Station
Haze Haze  
Wind Chill: 29°   Ceiling: 200
Heat Index: 36°   Visibility: 3mi
Dew Point: 36°   Wind: 9mph
Humidity: 100%   Direction: 170°S
Pressure: 30.1"   Gusts: NA
Location:  40.07°N, 93.61°W
Report Text: KLWD 210402Z AUTO 17008KT 3SM BR OVC002 02/02 A3010 RMK AO2 T00220022
Loading
Personal Weather Stations






























Interactive Weather Map New forecast layout! Learn more

10-Day Weather Forecast

Advertisements
Track Severe Weather on mobile